createdAt,value
2023-03-21T00:02:08.746Z,343.77
2023-03-21T00:04:50.461Z,367.95
2023-03-21T00:07:19.802Z,330.35
2023-03-21T00:09:48.188Z,378.90
2023-03-21T00:12:20.958Z,334.20
2023-03-21T00:14:49.278Z,347.50
2023-03-21T00:17:17.910Z,381.95
2023-03-21T00:19:46.240Z,458.30
2023-03-21T00:22:14.555Z,505.77
2023-03-21T00:24:42.944Z,351.00
2023-03-21T00:27:34.541Z,428.63
2023-03-21T00:30:00.996Z,449.73
2023-03-21T00:32:29.467Z,399.20
2023-03-21T00:35:25.791Z,468.58
2023-03-21T00:37:46.185Z,522.22
2023-03-21T00:40:35.270Z,487.08
2023-03-21T00:43:03.604Z,371.40
2023-03-21T00:45:33.450Z,340.75
2023-03-21T00:48:01.978Z,389.63
2023-03-21T00:50:30.358Z,455.63
2023-03-21T00:52:58.779Z,538.85
2023-03-21T00:55:27.167Z,443.40
2023-03-21T00:58:01.489Z,539.28
2023-03-21T01:00:32.899Z,397.30
2023-03-21T01:03:17.487Z,435.50
2023-03-21T01:06:05.417Z,380.38
2023-03-21T01:08:48.652Z,349.73
2023-03-21T01:11:21.691Z,424.70
2023-03-21T01:14:19.099Z,357.25
2023-03-21T01:16:40.271Z,408.27
2023-03-21T01:19:22.182Z,385.48
2023-03-21T01:21:52.770Z,339.08
2023-03-21T01:24:21.101Z,387.20
2023-03-21T01:26:49.569Z,443.95
2023-03-21T01:29:17.963Z,386.40
2023-03-21T01:31:48.428Z,549.03
2023-03-21T01:34:16.822Z,598.08
2023-03-21T01:36:45.333Z,474.95
2023-03-21T01:39:13.738Z,368.73
2023-03-21T01:41:44.582Z,529.80
2023-03-21T01:44:17.300Z,382.88
2023-03-21T01:46:57.421Z,365.60
2023-03-21T01:49:35.758Z,392.00
2023-03-21T01:52:13.173Z,415.42
2023-03-21T01:54:44.845Z,578.95
2023-03-21T01:57:16.968Z,362.30
2023-03-21T01:59:48.160Z,382.45
2023-03-21T02:02:23.099Z,370.95
2023-03-21T02:04:55.872Z,382.05
2023-03-21T02:07:28.788Z,445.33
2023-03-21T02:09:58.187Z,401.77
2023-03-21T02:12:27.183Z,575.88
2023-03-21T02:14:56.781Z,411.90
2023-03-21T02:17:32.470Z,406.88
2023-03-21T02:20:22.951Z,394.83
2023-03-21T02:23:28.923Z,357.80
2023-03-21T02:26:41.993Z,554.50
2023-03-21T02:29:26.955Z,493.77
2023-03-21T02:32:16.504Z,353.80
2023-03-21T02:35:06.481Z,441.02
2023-03-21T02:37:38.820Z,385.50
2023-03-21T02:40:13.631Z,375.02
2023-03-21T02:42:59.398Z,591.67
2023-03-21T02:45:31.568Z,414.85
2023-03-21T02:48:04.441Z,461.17
2023-03-21T02:50:37.399Z,398.10
2023-03-21T02:53:09.651Z,398.58
2023-03-21T02:55:38.772Z,403.80
2023-03-21T02:58:13.192Z,394.67
2023-03-21T03:00:43.396Z,399.35
2023-03-21T03:03:18.214Z,423.38
2023-03-21T03:05:56.952Z,602.13
2023-03-21T03:08:47.583Z,518.40
2023-03-21T03:11:28.792Z,364.52
2023-03-21T03:14:35.746Z,416.23
2023-03-21T03:17:12.256Z,359.55
2023-03-21T03:19:51.094Z,506.80
2023-03-21T03:22:24.271Z,387.25
2023-03-21T03:25:02.778Z,431.70
2023-03-21T03:27:36.778Z,419.23
2023-03-21T03:30:07.814Z,406.23
2023-03-21T03:32:38.967Z,422.48
2023-03-21T03:35:08.562Z,428.40
2023-03-21T03:37:38.109Z,424.80
2023-03-21T03:40:10.507Z,429.98
2023-03-21T03:42:42.044Z,349.20
2023-03-21T03:45:11.708Z,483.63
2023-03-21T03:47:55.993Z,570.42
2023-03-21T03:52:59.796Z,374.90
2023-03-21T03:55:34.407Z,499.67
2023-03-21T04:00:34.975Z,450.50
2023-03-21T04:03:03.704Z,571.40
2023-03-21T04:05:32.491Z,517.28
2023-03-21T04:08:00.895Z,487.77
2023-03-21T04:10:30.663Z,443.20
2023-03-21T04:12:58.970Z,509.67
2023-03-21T04:15:27.368Z,609.08
2023-03-21T04:17:55.878Z,519.95
2023-03-21T04:20:43.298Z,518.28
2023-03-21T04:23:12.796Z,491.52
2023-03-21T04:25:55.585Z,443.48
2023-03-21T04:28:24.515Z,419.60
2023-03-21T04:31:02.471Z,570.25
2023-03-21T04:33:38.405Z,438.05
2023-03-21T04:36:09.518Z,522.88
2023-03-21T04:38:39.063Z,474.42
2023-03-21T04:41:09.099Z,496.70
2023-03-21T04:43:37.660Z,512.35
2023-03-21T04:46:07.365Z,527.85
2023-03-21T04:48:35.839Z,543.65
2023-03-21T04:51:04.592Z,568.35
2023-03-21T04:53:32.960Z,533.30
2023-03-21T04:56:02.512Z,575.80
2023-03-21T04:58:32.225Z,546.13
2023-03-21T05:01:02.485Z,528.38
2023-03-21T05:03:34.427Z,537.55
2023-03-21T05:06:03.077Z,528.30
2023-03-21T05:08:31.394Z,535.97
2023-03-21T05:10:59.738Z,520.40
2023-03-21T05:13:28.212Z,587.78
2023-03-21T05:15:57.992Z,541.40
2023-03-21T05:18:26.510Z,612.97
2023-03-21T05:20:59.882Z,506.48
2023-03-21T05:23:31.523Z,520.85
2023-03-21T05:26:02.926Z,518.55
2023-03-21T05:28:31.790Z,570.20
2023-03-21T05:31:04.130Z,492.58
2023-03-21T05:33:32.856Z,600.63
2023-03-21T05:36:01.577Z,540.20
2023-03-21T05:38:30.565Z,509.50
2023-03-21T05:41:03.324Z,506.02
2023-03-21T05:43:31.901Z,498.17
2023-03-21T05:46:01.836Z,515.72
2023-03-21T05:48:30.481Z,559.28
2023-03-21T05:50:58.954Z,497.30
2023-03-21T05:53:27.537Z,567.42
2023-03-21T05:55:56.105Z,509.70
2023-03-21T05:58:24.573Z,526.53
2023-03-21T06:00:52.925Z,537.75
2023-03-21T06:03:22.756Z,562.85
2023-03-21T06:05:51.177Z,547.03
2023-03-21T06:08:20.297Z,517.08
2023-03-21T06:10:48.981Z,623.53
2023-03-21T06:13:17.360Z,484.88
2023-03-21T06:15:45.925Z,441.83
2023-03-21T06:18:14.391Z,535.28
2023-03-21T06:20:44.180Z,496.48
2023-03-21T06:23:12.594Z,482.50
2023-03-21T06:25:41.147Z,408.10
2023-03-21T06:28:09.638Z,490.92
2023-03-21T06:30:38.114Z,478.85
2023-03-21T06:33:06.554Z,435.13
2023-03-21T06:35:35.140Z,463.63
2023-03-21T06:38:04.979Z,656.90
2023-03-21T06:40:33.431Z,442.50
2023-03-21T06:43:01.793Z,437.95
2023-03-21T06:45:30.325Z,523.33
2023-03-21T06:47:58.806Z,456.60
2023-03-21T06:50:27.312Z,579.08
2023-03-21T06:52:57.471Z,395.25
2023-03-21T06:55:28.865Z,426.10
2023-03-21T06:57:58.290Z,419.33
2023-03-21T07:00:27.219Z,441.50
2023-03-21T07:02:55.625Z,469.00
2023-03-21T07:05:24.093Z,342.35
2023-03-21T07:07:52.530Z,365.98
2023-03-21T07:10:21.161Z,450.85
2023-03-21T07:12:50.963Z,351.77
2023-03-21T07:15:19.432Z,354.17
2023-03-21T07:17:47.920Z,429.23
2023-03-21T07:20:16.323Z,373.55
2023-03-21T07:22:45.024Z,354.65
2023-03-21T07:25:13.654Z,401.80
2023-03-21T07:27:42.247Z,536.72
2023-03-21T07:30:13.771Z,397.05
2023-03-21T07:32:42.545Z,441.58
2023-03-21T07:35:13.399Z,400.95
2023-03-21T07:37:42.610Z,444.45
2023-03-21T07:40:13.254Z,447.08
2023-03-21T07:42:42.529Z,681.95
2023-03-21T07:45:16.454Z,502.52
2023-03-21T07:47:46.537Z,479.95
2023-03-21T07:50:15.194Z,475.23
2023-03-21T07:52:43.571Z,484.92
2023-03-21T07:55:12.855Z,540.05
2023-03-21T07:57:41.408Z,510.55
2023-03-21T08:00:13.672Z,512.03
2023-03-21T08:02:42.152Z,478.05
2023-03-21T08:05:12.055Z,569.10
2023-03-21T08:07:40.582Z,460.85
2023-03-21T08:10:11.606Z,533.42
2023-03-21T08:12:40.232Z,576.63
2023-03-21T08:15:09.596Z,454.55
2023-03-21T08:17:39.938Z,520.10
2023-03-21T08:20:12.078Z,718.45
2023-03-21T08:22:40.643Z,522.25
2023-03-21T08:25:13.157Z,623.13
2023-03-21T08:27:42.031Z,511.67
2023-03-21T08:30:12.256Z,484.30
2023-03-21T08:32:42.649Z,543.70
2023-03-21T08:35:12.558Z,692.28
2023-03-21T08:37:41.629Z,486.77
2023-03-21T08:40:13.387Z,526.15
2023-03-21T08:42:42.377Z,732.65
2023-03-21T08:45:11.759Z,540.28
2023-03-21T08:47:41.709Z,474.52
2023-03-21T08:50:14.226Z,485.25
2023-03-21T08:52:42.702Z,453.00
2023-03-21T08:55:11.772Z,432.40
2023-03-21T08:57:40.246Z,507.55
2023-03-21T09:00:14.619Z,427.55
2023-03-21T09:05:13.485Z,574.08
2023-03-21T09:07:42.564Z,311.55
2023-03-21T09:10:22.173Z,349.35
2023-03-21T09:12:52.117Z,341.60
2023-03-21T09:15:21.838Z,386.55
2023-03-21T09:17:53.269Z,427.30
2023-03-21T09:20:31.184Z,400.63
2023-03-21T09:23:01.721Z,277.38
2023-03-21T09:25:30.992Z,336.08
2023-03-21T09:28:00.518Z,280.65
2023-03-21T09:30:30.148Z,309.45
2023-03-21T09:33:00.685Z,383.83
2023-03-21T09:35:29.283Z,345.60
2023-03-21T09:37:58.992Z,311.58
2023-03-21T09:40:41.448Z,337.77
2023-03-21T09:43:21.895Z,412.73
2023-03-21T09:45:53.827Z,435.17
2023-03-21T09:48:31.282Z,274.05
2023-03-21T09:51:01.167Z,308.25
2023-03-21T09:53:32.810Z,273.10
2023-03-21T09:56:02.181Z,222.43
2023-03-21T09:58:33.626Z,343.23
2023-03-21T10:01:08.789Z,237.48
2023-03-21T10:03:39.984Z,189.85
2023-03-21T10:06:15.358Z,219.40
2023-03-21T10:08:47.472Z,214.10
2023-03-21T10:11:21.607Z,289.15
2023-03-21T10:13:52.424Z,268.23
2023-03-21T10:16:25.747Z,218.85
2023-03-21T10:18:56.316Z,224.35
2023-03-21T10:21:56.586Z,284.10
2023-03-21T10:24:17.728Z,240.30
2023-03-21T10:26:47.171Z,220.70
2023-03-21T10:29:18.514Z,229.35
2023-03-21T10:31:48.579Z,214.63
2023-03-21T10:34:23.683Z,274.33
2023-03-21T10:36:52.081Z,233.77
2023-03-21T10:39:26.493Z,410.05
2023-03-21T10:44:23.351Z,229.93
2023-03-21T10:46:54.224Z,243.32
2023-03-21T10:49:25.494Z,219.15
2023-03-21T10:51:56.642Z,223.80
2023-03-21T10:54:29.479Z,233.95
2023-03-21T10:57:00.642Z,221.30
2023-03-21T10:59:34.649Z,224.43
2023-03-21T11:02:06.003Z,207.50
2023-03-21T11:04:35.953Z,391.85
2023-03-21T11:07:12.090Z,253.50
2023-03-21T11:09:48.231Z,276.15
2023-03-21T11:12:18.852Z,300.20
2023-03-21T11:14:48.312Z,267.13
2023-03-21T11:17:25.103Z,260.23
2023-03-21T11:19:58.296Z,268.27
2023-03-21T11:22:29.800Z,288.63
2023-03-21T11:25:01.313Z,299.95
2023-03-21T11:27:30.660Z,491.85
2023-03-21T11:30:00.353Z,315.10
2023-03-21T11:32:33.739Z,343.20
2023-03-21T11:35:06.740Z,382.30
2023-03-21T11:37:39.214Z,349.85
2023-03-21T11:40:20.458Z,330.98
2023-03-21T11:42:51.816Z,319.48
2023-03-21T11:45:21.770Z,348.60
2023-03-21T11:47:51.617Z,304.98
2023-03-21T11:50:32.234Z,367.77
2023-03-21T11:53:10.789Z,292.98
2023-03-21T11:55:47.473Z,287.15
2023-03-21T11:58:25.351Z,297.25
2023-03-21T12:00:58.398Z,303.42
2023-03-21T12:03:49.177Z,317.52
2023-03-21T12:06:26.623Z,325.52
2023-03-21T12:09:17.066Z,300.88
2023-03-21T12:11:53.809Z,287.10
2023-03-21T12:14:28.833Z,306.52
2023-03-21T12:17:04.804Z,326.70
2023-03-21T12:20:12.710Z,350.02
2023-03-21T12:22:51.273Z,307.30
2023-03-21T12:25:23.187Z,349.55
2023-03-21T12:27:58.468Z,333.85
2023-03-21T12:30:34.488Z,303.95
2023-03-21T12:33:15.526Z,311.75
2023-03-21T12:35:55.900Z,322.67
2023-03-21T12:38:29.849Z,476.15
2023-03-21T12:41:17.655Z,314.10
2023-03-21T12:43:47.917Z,314.17
2023-03-21T12:46:20.531Z,332.90
2023-03-21T12:48:50.680Z,381.38
2023-03-21T12:51:22.228Z,397.40
2023-03-21T12:53:56.982Z,341.15
2023-03-21T12:56:29.684Z,319.70
2023-03-21T12:59:01.311Z,335.30
2023-03-21T13:01:30.386Z,329.13
2023-03-21T13:04:15.349Z,382.38
2023-03-21T13:06:45.303Z,353.52
2023-03-21T13:09:23.322Z,396.20
2023-03-21T13:11:59.242Z,358.48
2023-03-21T13:14:31.873Z,359.08
2023-03-21T13:17:03.473Z,350.38
2023-03-21T13:19:38.417Z,422.35
2023-03-21T13:22:11.407Z,387.17
2023-03-21T13:24:44.978Z,429.70
2023-03-21T13:27:24.830Z,388.88
2023-03-21T13:29:57.666Z,422.75
2023-03-21T13:32:30.979Z,396.00
2023-03-21T13:35:01.422Z,394.17
2023-03-21T13:37:33.772Z,486.63
2023-03-21T13:40:10.000Z,395.40
2023-03-21T13:42:45.609Z,436.38
2023-03-21T13:45:25.829Z,395.42
2023-03-21T13:47:56.775Z,385.38
2023-03-21T13:50:31.323Z,360.05
2023-03-21T13:53:22.978Z,345.17
2023-03-21T13:56:20.947Z,334.35
2023-03-21T13:58:54.575Z,412.98
2023-03-21T14:01:34.382Z,419.30
2023-03-21T14:04:16.613Z,365.88
2023-03-21T14:06:50.848Z,327.30
2023-03-21T14:11:54.630Z,335.05
2023-03-21T14:14:28.038Z,482.75
2023-03-21T14:16:56.469Z,327.73
2023-03-21T14:19:32.072Z,316.90
2023-03-21T14:22:00.730Z,317.42
2023-03-21T14:24:29.104Z,378.80
2023-03-21T14:27:02.728Z,351.70
2023-03-21T14:29:33.950Z,315.83
2023-03-21T14:32:03.916Z,354.20
2023-03-21T14:34:34.442Z,376.65
2023-03-21T14:37:03.257Z,331.83
2023-03-21T14:39:33.665Z,406.73
2023-03-21T14:42:06.710Z,319.65
2023-03-21T14:44:52.850Z,328.42
2023-03-21T14:47:24.057Z,334.15
2023-03-21T14:49:52.903Z,422.92
2023-03-21T14:52:24.795Z,348.27
2023-03-21T14:54:54.423Z,315.25
2023-03-21T14:57:26.176Z,284.33
2023-03-21T14:59:56.264Z,307.08
2023-03-21T15:02:27.062Z,306.63
2023-03-21T15:04:58.374Z,457.13
2023-03-21T15:07:28.937Z,352.00
2023-03-21T15:09:59.282Z,314.25
2023-03-21T15:12:29.042Z,349.35
2023-03-21T15:14:57.748Z,324.55
2023-03-21T15:17:28.366Z,341.80
2023-03-21T15:19:56.802Z,318.25
2023-03-21T15:22:31.649Z,366.88
2023-03-21T15:25:03.016Z,385.52
2023-03-21T15:27:36.127Z,304.23
2023-03-21T15:30:04.962Z,332.40
2023-03-21T15:32:37.448Z,394.80
2023-03-21T15:35:09.020Z,324.27
2023-03-21T15:37:38.827Z,336.77
2023-03-21T15:40:19.246Z,327.38
2023-03-21T15:42:49.617Z,348.30
2023-03-21T15:45:22.294Z,517.00
2023-03-21T15:47:55.938Z,415.23
2023-03-21T15:50:29.490Z,408.33
2023-03-21T15:53:00.026Z,376.38
2023-03-21T15:55:35.389Z,450.73
2023-03-21T15:58:13.077Z,436.30
2023-03-21T16:00:43.886Z,614.47
2023-03-21T16:03:18.259Z,610.25
2023-03-21T16:08:30.077Z,392.38
2023-03-21T16:11:08.668Z,547.78
2023-03-21T16:13:38.686Z,526.35
2023-03-21T16:16:07.923Z,602.58
2023-03-21T16:18:36.368Z,715.38
2023-03-21T16:21:05.216Z,580.28
2023-03-21T16:23:33.700Z,559.92
2023-03-21T16:26:04.235Z,687.78
2023-03-21T16:28:33.089Z,595.15
2023-03-21T16:31:03.178Z,558.90
2023-03-21T16:33:31.824Z,606.03
2023-03-21T16:36:00.922Z,609.42
2023-03-21T16:38:31.654Z,600.85
2023-03-21T16:41:00.951Z,594.47
2023-03-21T16:43:29.668Z,566.95
2023-03-21T16:45:58.546Z,621.78
2023-03-21T16:48:29.026Z,786.47
2023-03-21T16:50:58.608Z,617.97
2023-03-21T16:53:28.542Z,595.13
2023-03-21T16:56:02.731Z,651.00
2023-03-21T16:58:31.625Z,613.75
2023-03-21T17:01:01.232Z,557.40
2023-03-21T17:03:31.826Z,741.58
2023-03-21T17:06:00.890Z,556.92
2023-03-21T17:08:30.484Z,587.38
2023-03-21T17:10:59.877Z,770.83
2023-03-21T17:13:28.328Z,643.13
2023-03-21T17:15:56.786Z,571.47
2023-03-21T17:18:25.367Z,637.13
2023-03-21T17:20:56.025Z,600.50
2023-03-21T17:23:24.696Z,563.05
2023-03-21T17:25:53.242Z,578.10
2023-03-21T17:28:21.693Z,606.53
2023-03-21T17:30:58.741Z,594.40
2023-03-21T17:33:27.256Z,562.28
2023-03-21T17:35:57.661Z,656.90
2023-03-21T17:38:26.252Z,830.53
2023-03-21T17:40:54.943Z,560.45
2023-03-21T17:43:23.795Z,576.30
2023-03-21T17:45:54.152Z,531.97
2023-03-21T17:48:22.848Z,568.00
2023-03-21T17:50:51.483Z,725.83
2023-03-21T17:53:27.156Z,560.25
2023-03-21T17:55:55.970Z,566.55
2023-03-21T17:58:24.378Z,545.58
2023-03-21T18:00:52.937Z,567.90
2023-03-21T18:03:21.314Z,658.47
2023-03-21T18:05:49.790Z,561.72
2023-03-21T18:08:18.456Z,584.17
2023-03-21T18:10:48.405Z,613.08
2023-03-21T18:13:17.113Z,537.88
2023-03-21T18:15:48.335Z,598.92
2023-03-21T18:18:17.127Z,590.55
2023-03-21T18:20:52.084Z,589.55
2023-03-21T18:23:22.782Z,539.85
2023-03-21T18:25:53.540Z,551.55
2023-03-21T18:28:22.724Z,628.42
2023-03-21T18:33:41.386Z,576.65
2023-03-21T18:36:10.855Z,588.97
2023-03-21T18:38:39.959Z,627.78
2023-03-21T18:41:10.177Z,584.22
2023-03-21T18:46:28.513Z,596.22
2023-03-21T18:48:57.301Z,536.97
2023-03-21T18:51:25.770Z,592.00
2023-03-21T18:53:54.600Z,580.92
2023-03-21T18:57:19.619Z,663.75
2023-03-21T18:59:14.132Z,585.80
2023-03-21T19:01:42.815Z,572.50
2023-03-21T19:04:22.943Z,558.72
2023-03-21T19:06:54.047Z,519.85
2023-03-21T19:09:31.375Z,545.10
2023-03-21T19:12:03.200Z,539.17
2023-03-21T19:14:31.669Z,558.17
2023-03-21T19:19:48.857Z,557.70
2023-03-21T19:22:17.872Z,579.33
2023-03-21T19:24:47.210Z,571.30
2023-03-21T19:27:17.065Z,531.97
2023-03-21T19:29:59.720Z,576.45
2023-03-21T19:32:34.500Z,609.33
2023-03-21T19:35:03.388Z,484.45
2023-03-21T19:37:35.204Z,543.78
2023-03-21T19:40:05.364Z,514.65
2023-03-21T19:42:36.339Z,584.08
2023-03-21T20:00:38.275Z,476.48
2023-03-21T20:14:13.932Z,477.45
2023-03-21T20:16:43.712Z,483.85
2023-03-21T20:19:25.605Z,518.47
2023-03-21T20:32:51.984Z,521.08
2023-03-21T20:39:30.013Z,541.63
2023-03-21T20:42:19.808Z,644.15
2023-03-21T20:45:18.532Z,521.67
2023-03-21T20:48:06.829Z,576.58
2023-03-21T20:51:01.121Z,561.83
2023-03-21T20:53:48.045Z,736.42
2023-03-21T20:56:23.908Z,588.75
2023-03-21T20:59:16.704Z,645.45
2023-03-21T21:02:09.990Z,589.03
2023-03-21T21:05:21.595Z,615.63
2023-03-21T21:07:59.930Z,550.15
2023-03-21T21:11:21.118Z,661.08
2023-03-21T21:13:53.765Z,584.08
2023-03-21T21:16:33.803Z,512.28
2023-03-21T21:19:14.864Z,645.17
2023-03-21T21:21:52.311Z,466.27
2023-03-21T21:24:26.466Z,509.88
2023-03-21T21:26:58.959Z,588.38
2023-03-21T21:29:37.513Z,456.65
2023-03-21T21:32:15.454Z,498.80
2023-03-21T21:34:54.090Z,504.35
2023-03-21T21:37:27.281Z,493.15
2023-03-21T21:42:46.166Z,500.45
2023-03-21T21:45:17.100Z,450.10
2023-03-21T21:47:51.274Z,501.17
2023-03-21T21:50:22.264Z,462.75
2023-03-21T21:52:54.704Z,494.70
2023-03-21T21:55:25.358Z,514.10
2023-03-21T21:57:59.537Z,559.78
2023-03-21T22:00:32.083Z,503.95
2023-03-21T22:03:03.675Z,559.47
2023-03-21T22:05:35.821Z,555.45
2023-03-21T22:08:06.423Z,604.55
2023-03-21T22:10:35.461Z,534.03
2023-03-21T22:13:04.077Z,501.63
2023-03-21T22:15:34.275Z,624.75
2023-03-21T22:18:03.184Z,605.47
2023-03-21T22:20:37.597Z,592.00
2023-03-21T22:25:37.736Z,393.98
2023-03-21T22:28:06.741Z,454.42
2023-03-21T22:30:37.210Z,491.08
2023-03-21T22:33:09.680Z,561.30
2023-03-21T22:35:50.410Z,562.78
2023-03-21T22:38:24.462Z,482.15
2023-03-21T22:40:59.540Z,441.58
2023-03-21T22:43:29.148Z,482.40
2023-03-21T22:45:59.197Z,609.10
2023-03-21T22:48:30.253Z,423.77
2023-03-21T22:50:59.159Z,500.45
2023-03-21T22:53:27.642Z,422.90
2023-03-21T22:55:56.354Z,494.38
2023-03-21T22:58:24.898Z,525.45
2023-03-21T23:00:53.416Z,540.70
2023-03-21T23:03:23.152Z,571.50
2023-03-21T23:05:51.708Z,635.53
2023-03-21T23:08:20.021Z,488.85
2023-03-21T23:10:48.397Z,507.10
2023-03-21T23:13:16.864Z,668.10
2023-03-21T23:15:45.273Z,544.55
2023-03-21T23:18:13.658Z,529.15
2023-03-21T23:20:43.340Z,539.28
2023-03-21T23:23:11.678Z,474.27
2023-03-21T23:25:42.430Z,629.78
2023-03-21T23:28:11.073Z,674.35
2023-03-21T23:30:39.683Z,540.95
2023-03-21T23:33:08.131Z,611.42
2023-03-21T23:35:38.189Z,606.58
2023-03-21T23:38:08.205Z,615.03
2023-03-21T23:40:39.346Z,585.13
2023-03-21T23:43:07.828Z,579.25
2023-03-21T23:45:36.193Z,647.45
2023-03-21T23:48:04.684Z,641.97
2023-03-21T23:50:33.735Z,628.47
2023-03-21T23:53:02.031Z,608.85
2023-03-21T23:55:32.078Z,632.00
2023-03-21T23:58:00.506Z,652.55
